sensor_id;sensor_type;location;lat;lon;timestamp;pressure;altitude;pressure_sealevel;temperature
76394;BMP180;65216;51.090;-115.352;2023-10-08T00:01:21;87169.80;;;24.00
76394;BMP180;65216;51.090;-115.352;2023-10-08T00:03:52;87174.20;;;24.00
76394;BMP180;65216;51.090;-115.352;2023-10-08T00:06:24;87165.40;;;24.00
76394;BMP180;65216;51.090;-115.352;2023-10-08T00:08:53;87161.00;;;24.00
76394;BMP180;65216;51.090;-115.352;2023-10-08T00:11:27;87170.00;;;23.90
76394;BMP180;65216;51.090;-115.352;2023-10-08T00:13:55;87185.80;;;23.90
76394;BMP180;65216;51.090;-115.352;2023-10-08T00:16:22;87170.00;;;23.90
76394;BMP180;65216;51.090;-115.352;2023-10-08T00:18:54;87167.20;;;23.80
76394;BMP180;65216;51.090;-115.352;2023-10-08T00:21:26;87183.20;;;23.80
76394;BMP180;65216;51.090;-115.352;2023-10-08T00:23:53;87173.00;;;23.70
76394;BMP180;65216;51.090;-115.352;2023-10-08T00:26:28;87164.20;;;23.70
76394;BMP180;65216;51.090;-115.352;2023-10-08T00:29:00;87165.20;;;23.60
76394;BMP180;65216;51.090;-115.352;2023-10-08T00:31:34;87175.60;;;23.60
76394;BMP180;65216;51.090;-115.352;2023-10-08T00:34:05;87163.20;;;23.50
76394;BMP180;65216;51.090;-115.352;2023-10-08T00:36:32;87164.00;;;23.50
76394;BMP180;65216;51.090;-115.352;2023-10-08T00:39:00;87173.60;;;23.40
76394;BMP180;65216;51.090;-115.352;2023-10-08T00:41:34;87173.40;;;23.40
76394;BMP180;65216;51.090;-115.352;2023-10-08T00:44:01;87165.00;;;23.40
76394;BMP180;65216;51.090;-115.352;2023-10-08T00:46:32;87167.80;;;23.30
76394;BMP180;65216;51.090;-115.352;2023-10-08T00:49:03;87173.60;;;23.30
76394;BMP180;65216;51.090;-115.352;2023-10-08T00:51:46;87163.80;;;23.30
76394;BMP180;65216;51.090;-115.352;2023-10-08T00:54:14;87165.00;;;23.26
76394;BMP180;65216;51.090;-115.352;2023-10-08T00:56:47;87169.60;;;23.20
76394;BMP180;65216;51.090;-115.352;2023-10-08T00:59:17;87168.80;;;23.20
76394;BMP180;65216;51.090;-115.352;2023-10-08T01:01:49;87172.40;;;23.10
76394;BMP180;65216;51.090;-115.352;2023-10-08T01:04:22;87171.00;;;23.10
76394;BMP180;65216;51.090;-115.352;2023-10-08T01:06:55;87162.40;;;23.10
76394;BMP180;65216;51.090;-115.352;2023-10-08T01:09:29;87161.60;;;23.10
76394;BMP180;65216;51.090;-115.352;2023-10-08T01:14:56;87169.20;;;23.00
76394;BMP180;65216;51.090;-115.352;2023-10-08T01:17:39;87169.80;;;22.98
76394;BMP180;65216;51.090;-115.352;2023-10-08T01:20:20;87167.20;;;22.90
76394;BMP180;65216;51.090;-115.352;2023-10-08T01:23:09;87173.80;;;22.90
76394;BMP180;65216;51.090;-115.352;2023-10-08T01:25:49;87168.40;;;22.90
76394;BMP180;65216;51.090;-115.352;2023-10-08T01:28:20;87173.00;;;22.80
76394;BMP180;65216;51.090;-115.352;2023-10-08T01:30:55;87170.40;;;22.80
76394;BMP180;65216;51.090;-115.352;2023-10-08T01:33:27;87179.60;;;22.80
76394;BMP180;65216;51.090;-115.352;2023-10-08T01:35:58;87171.00;;;22.80
76394;BMP180;65216;51.090;-115.352;2023-10-08T01:38:34;87171.00;;;22.70
76394;BMP180;65216;51.090;-115.352;2023-10-08T01:41:01;87168.00;;;22.70
76394;BMP180;65216;51.090;-115.352;2023-10-08T01:43:32;87149.80;;;22.70
76394;BMP180;65216;51.090;-115.352;2023-10-08T01:46:03;87168.20;;;22.62
76394;BMP180;65216;51.090;-115.352;2023-10-08T01:48:31;87166.00;;;22.60
76394;BMP180;65216;51.090;-115.352;2023-10-08T01:51:03;87167.60;;;22.60
76394;BMP180;65216;51.090;-115.352;2023-10-08T01:53:36;87164.00;;;22.60
76394;BMP180;65216;51.090;-115.352;2023-10-08T01:56:05;87183.00;;;22.58
76394;BMP180;65216;51.090;-115.352;2023-10-08T01:58:32;87174.40;;;22.50
76394;BMP180;65216;51.090;-115.352;2023-10-08T02:01:04;87168.80;;;22.50
76394;BMP180;65216;51.090;-115.352;2023-10-08T02:03:38;87180.80;;;22.50
76394;BMP180;65216;51.090;-115.352;2023-10-08T02:06:05;87176.00;;;22.50
76394;BMP180;65216;51.090;-115.352;2023-10-08T02:08:35;87176.20;;;22.50
76394;BMP180;65216;51.090;-115.352;2023-10-08T02:11:02;87168.60;;;22.42
76394;BMP180;65216;51.090;-115.352;2023-10-08T02:13:29;87179.20;;;22.40
76394;BMP180;65216;51.090;-115.352;2023-10-08T02:15:59;87174.00;;;22.40
76394;BMP180;65216;51.090;-115.352;2023-10-08T02:18:26;87171.80;;;22.40
76394;BMP180;65216;51.090;-115.352;2023-10-08T02:20:55;87168.20;;;22.40
76394;BMP180;65216;51.090;-115.352;2023-10-08T02:23:22;87164.20;;;22.40
76394;BMP180;65216;51.090;-115.352;2023-10-08T02:25:49;87175.80;;;22.40
76394;BMP180;65216;51.090;-115.352;2023-10-08T02:28:17;87156.00;;;22.40
76394;BMP180;65216;51.090;-115.352;2023-10-08T02:30:46;87175.20;;;22.40
76394;BMP180;65216;51.090;-115.352;2023-10-08T02:33:13;87171.20;;;22.40
76394;BMP180;65216;51.090;-115.352;2023-10-08T02:35:49;87177.20;;;22.40
76394;BMP180;65216;51.090;-115.352;2023-10-08T02:38:20;87171.00;;;22.36
76394;BMP180;65216;51.090;-115.352;2023-10-08T02:40:54;87174.80;;;22.40
76394;BMP180;65216;51.090;-115.352;2023-10-08T02:43:23;87177.80;;;22.40
76394;BMP180;65216;51.090;-115.352;2023-10-08T02:45:49;87173.60;;;22.38
76394;BMP180;65216;51.090;-115.352;2023-10-08T02:48:21;87176.80;;;22.30
76394;BMP180;65216;51.090;-115.352;2023-10-08T02:50:49;87177.40;;;22.30
76394;BMP180;65216;51.090;-115.352;2023-10-08T02:53:19;87171.20;;;22.30
76394;BMP180;65216;51.090;-115.352;2023-10-08T02:55:53;87173.40;;;22.30
76394;BMP180;65216;51.090;-115.352;2023-10-08T02:58:23;87165.80;;;22.30
76394;BMP180;65216;51.090;-115.352;2023-10-08T03:00:51;87171.00;;;22.30
76394;BMP180;65216;51.090;-115.352;2023-10-08T03:03:19;87166.40;;;22.30
76394;BMP180;65216;51.090;-115.352;2023-10-08T03:05:52;87170.00;;;22.30
76394;BMP180;65216;51.090;-115.352;2023-10-08T03:08:23;87171.80;;;22.28
76394;BMP180;65216;51.090;-115.352;2023-10-08T03:10:54;87171.20;;;22.20
76394;BMP180;65216;51.090;-115.352;2023-10-08T03:13:29;87171.00;;;22.20
76394;BMP180;65216;51.090;-115.352;2023-10-08T03:15:56;87177.60;;;22.20
76394;BMP180;65216;51.090;-115.352;2023-10-08T03:18:29;87167.80;;;22.20
76394;BMP180;65216;51.090;-115.352;2023-10-08T03:21:04;87170.00;;;22.20
76394;BMP180;65216;51.090;-115.352;2023-10-08T03:23:40;87166.00;;;22.20
76394;BMP180;65216;51.090;-115.352;2023-10-08T03:26:14;87172.60;;;22.16
76394;BMP180;65216;51.090;-115.352;2023-10-08T03:29:05;87166.60;;;22.10
76394;BMP180;65216;51.090;-115.352;2023-10-08T03:31:35;87165.00;;;22.10
76394;BMP180;65216;51.090;-115.352;2023-10-08T03:34:15;87166.80;;;22.10
76394;BMP180;65216;51.090;-115.352;2023-10-08T03:36:46;87169.20;;;22.10
76394;BMP180;65216;51.090;-115.352;2023-10-08T03:39:15;87162.80;;;22.10
76394;BMP180;65216;51.090;-115.352;2023-10-08T03:41:43;87168.40;;;22.10
76394;BMP180;65216;51.090;-115.352;2023-10-08T03:44:26;87166.00;;;22.10
76394;BMP180;65216;51.090;-115.352;2023-10-08T03:46:56;87169.40;;;22.10
76394;BMP180;65216;51.090;-115.352;2023-10-08T03:49:23;87172.20;;;22.06
76394;BMP180;65216;51.090;-115.352;2023-10-08T03:51:52;87172.20;;;22.04
76394;BMP180;65216;51.090;-115.352;2023-10-08T03:54:23;87173.20;;;22.00
76394;BMP180;65216;51.090;-115.352;2023-10-08T03:59:30;87176.60;;;22.00
76394;BMP180;65216;51.090;-115.352;2023-10-08T04:02:06;87173.80;;;22.00
76394;BMP180;65216;51.090;-115.352;2023-10-08T04:04:59;87174.40;;;22.00
76394;BMP180;65216;51.090;-115.352;2023-10-08T04:07:29;87174.00;;;22.00
76394;BMP180;65216;51.090;-115.352;2023-10-08T04:10:00;87176.80;;;21.96
76394;BMP180;65216;51.090;-115.352;2023-10-08T04:12:37;87181.20;;;21.90
76394;BMP180;65216;51.090;-115.352;2023-10-08T04:15:11;87181.60;;;21.90
76394;BMP180;65216;51.090;-115.352;2023-10-08T04:17:42;87177.60;;;21.90
76394;BMP180;65216;51.090;-115.352;2023-10-08T04:20:17;87179.20;;;21.90
76394;BMP180;65216;51.090;-115.352;2023-10-08T04:23:01;87178.20;;;21.90
76394;BMP180;65216;51.090;-115.352;2023-10-08T04:25:29;87177.40;;;21.90
76394;BMP180;65216;51.090;-115.352;2023-10-08T04:27:58;87175.60;;;21.90
76394;BMP180;65216;51.090;-115.352;2023-10-08T04:30:33;87172.80;;;21.90
76394;BMP180;65216;51.090;-115.352;2023-10-08T04:33:05;87170.80;;;21.90
76394;BMP180;65216;51.090;-115.352;2023-10-08T04:35:43;87166.20;;;21.84
76394;BMP180;65216;51.090;-115.352;2023-10-08T04:38:20;87168.00;;;21.80
76394;BMP180;65216;51.090;-115.352;2023-10-08T04:40:55;87168.40;;;21.80
76394;BMP180;65216;51.090;-115.352;2023-10-08T04:43:30;87166.40;;;21.80
76394;BMP180;65216;51.090;-115.352;2023-10-08T04:46:02;87170.60;;;21.80
76394;BMP180;65216;51.090;-115.352;2023-10-08T04:48:32;87169.80;;;21.80
76394;BMP180;65216;51.090;-115.352;2023-10-08T04:51:00;87175.00;;;21.80
76394;BMP180;65216;51.090;-115.352;2023-10-08T04:53:33;87169.40;;;21.80
76394;BMP180;65216;51.090;-115.352;2023-10-08T04:56:08;87171.00;;;21.80
76394;BMP180;65216;51.090;-115.352;2023-10-08T04:58:49;87167.60;;;21.80
76394;BMP180;65216;51.090;-115.352;2023-10-08T05:01:22;87165.80;;;21.80
76394;BMP180;65216;51.090;-115.352;2023-10-08T05:04:04;87168.40;;;21.80
76394;BMP180;65216;51.090;-115.352;2023-10-08T05:06:34;87171.80;;;21.80
76394;BMP180;65216;51.090;-115.352;2023-10-08T05:09:07;87178.80;;;21.78
76394;BMP180;65216;51.090;-115.352;2023-10-08T05:11:51;87180.80;;;21.78
76394;BMP180;65216;51.090;-115.352;2023-10-08T05:14:20;87174.20;;;21.76
76394;BMP180;65216;51.090;-115.352;2023-10-08T05:17:06;87183.20;;;21.72
76394;BMP180;65216;51.090;-115.352;2023-10-08T05:19:41;87185.60;;;21.74
76394;BMP180;65216;51.090;-115.352;2023-10-08T05:22:09;87187.80;;;21.76
76394;BMP180;65216;51.090;-115.352;2023-10-08T05:25:04;87188.00;;;21.74
76394;BMP180;65216;51.090;-115.352;2023-10-08T05:27:39;87196.60;;;21.70
76394;BMP180;65216;51.090;-115.352;2023-10-08T05:30:16;87196.40;;;21.70
76394;BMP180;65216;51.090;-115.352;2023-10-08T05:32:58;87196.40;;;21.70
76394;BMP180;65216;51.090;-115.352;2023-10-08T05:35:45;87194.00;;;21.70
76394;BMP180;65216;51.090;-115.352;2023-10-08T05:38:18;87195.40;;;21.70
76394;BMP180;65216;51.090;-115.352;2023-10-08T05:40:58;87193.80;;;21.70
76394;BMP180;65216;51.090;-115.352;2023-10-08T05:43:35;87196.20;;;21.70
76394;BMP180;65216;51.090;-115.352;2023-10-08T05:51:40;87193.00;;;21.70
76394;BMP180;65216;51.090;-115.352;2023-10-08T05:54:24;87191.00;;;21.70
76394;BMP180;65216;51.090;-115.352;2023-10-08T05:56:52;87188.80;;;21.70
76394;BMP180;65216;51.090;-115.352;2023-10-08T05:59:47;87191.40;;;21.70
76394;BMP180;65216;51.090;-115.352;2023-10-08T06:02:27;87191.00;;;21.70
76394;BMP180;65216;51.090;-115.352;2023-10-08T06:04:58;87190.60;;;21.70
76394;BMP180;65216;51.090;-115.352;2023-10-08T06:07:46;87192.00;;;21.70
76394;BMP180;65216;51.090;-115.352;2023-10-08T06:10:26;87188.40;;;21.70
76394;BMP180;65216;51.090;-115.352;2023-10-08T06:15:49;87191.80;;;21.70
76394;BMP180;65216;51.090;-115.352;2023-10-08T06:18:30;87196.60;;;21.60
76394;BMP180;65216;51.090;-115.352;2023-10-08T06:21:07;87194.80;;;21.60
76394;BMP180;65216;51.090;-115.352;2023-10-08T06:23:37;87195.60;;;21.60
76394;BMP180;65216;51.090;-115.352;2023-10-08T06:26:06;87194.20;;;21.60
76394;BMP180;65216;51.090;-115.352;2023-10-08T06:28:37;87191.80;;;21.60
76394;BMP180;65216;51.090;-115.352;2023-10-08T06:31:05;87188.80;;;21.60
76394;BMP180;65216;51.090;-115.352;2023-10-08T06:33:44;87186.60;;;21.60
76394;BMP180;65216;51.090;-115.352;2023-10-08T06:36:11;87186.60;;;21.60
76394;BMP180;65216;51.090;-115.352;2023-10-08T06:38:41;87189.00;;;21.60
76394;BMP180;65216;51.090;-115.352;2023-10-08T06:41:11;87188.00;;;21.60
76394;BMP180;65216;51.090;-115.352;2023-10-08T06:43:49;87185.80;;;21.60
76394;BMP180;65216;51.090;-115.352;2023-10-08T06:46:18;87186.80;;;21.56
76394;BMP180;65216;51.090;-115.352;2023-10-08T06:48:49;87188.20;;;21.50
76394;BMP180;65216;51.090;-115.352;2023-10-08T06:51:16;87185.00;;;21.50
76394;BMP180;65216;51.090;-115.352;2023-10-08T06:53:48;87188.40;;;21.50
76394;BMP180;65216;51.090;-115.352;2023-10-08T06:56:16;87180.20;;;21.50
76394;BMP180;65216;51.090;-115.352;2023-10-08T06:58:44;87182.40;;;21.50
76394;BMP180;65216;51.090;-115.352;2023-10-08T07:01:16;87183.60;;;21.50
76394;BMP180;65216;51.090;-115.352;2023-10-08T07:03:54;87190.60;;;21.48
76394;BMP180;65216;51.090;-115.352;2023-10-08T07:06:30;87189.60;;;21.40
76394;BMP180;65216;51.090;-115.352;2023-10-08T07:09:04;87185.00;;;21.40
76394;BMP180;65216;51.090;-115.352;2023-10-08T07:11:33;87180.60;;;21.40
76394;BMP180;65216;51.090;-115.352;2023-10-08T07:14:06;87182.80;;;21.40
76394;BMP180;65216;51.090;-115.352;2023-10-08T07:16:33;87184.80;;;21.40
76394;BMP180;65216;51.090;-115.352;2023-10-08T07:19:03;87176.80;;;21.40
76394;BMP180;65216;51.090;-115.352;2023-10-08T07:21:44;87177.60;;;21.40
76394;BMP180;65216;51.090;-115.352;2023-10-08T07:24:15;87174.60;;;21.32
76394;BMP180;65216;51.090;-115.352;2023-10-08T07:26:43;87171.40;;;21.30
76394;BMP180;65216;51.090;-115.352;2023-10-08T07:29:17;87174.60;;;21.30
76394;BMP180;65216;51.090;-115.352;2023-10-08T07:31:46;87170.80;;;21.30
76394;BMP180;65216;51.090;-115.352;2023-10-08T07:34:20;87168.00;;;21.30
76394;BMP180;65216;51.090;-115.352;2023-10-08T07:36:51;87164.80;;;21.30
76394;BMP180;65216;51.090;-115.352;2023-10-08T07:39:20;87172.60;;;21.30
76394;BMP180;65216;51.090;-115.352;2023-10-08T07:42:03;87170.60;;;21.28
76394;BMP180;65216;51.090;-115.352;2023-10-08T07:44:32;87169.60;;;21.24
76394;BMP180;65216;51.090;-115.352;2023-10-08T07:47:06;87172.80;;;21.20
76394;BMP180;65216;51.090;-115.352;2023-10-08T07:49:41;87172.20;;;21.20
76394;BMP180;65216;51.090;-115.352;2023-10-08T07:52:11;87174.20;;;21.20
76394;BMP180;65216;51.090;-115.352;2023-10-08T07:54:41;87174.40;;;21.20
76394;BMP180;65216;51.090;-115.352;2023-10-08T07:57:08;87173.00;;;21.20
76394;BMP180;65216;51.090;-115.352;2023-10-08T07:59:36;87170.40;;;21.20
76394;BMP180;65216;51.090;-115.352;2023-10-08T08:02:15;87173.00;;;21.14
76394;BMP180;65216;51.090;-115.352;2023-10-08T08:04:45;87167.20;;;21.10
76394;BMP180;65216;51.090;-115.352;2023-10-08T08:07:13;87162.20;;;21.10
76394;BMP180;65216;51.090;-115.352;2023-10-08T08:09:45;87167.60;;;21.10
76394;BMP180;65216;51.090;-115.352;2023-10-08T08:12:22;87167.00;;;21.10
76394;BMP180;65216;51.090;-115.352;2023-10-08T08:14:50;87167.20;;;21.10
76394;BMP180;65216;51.090;-115.352;2023-10-08T08:17:18;87160.60;;;21.10
76394;BMP180;65216;51.090;-115.352;2023-10-08T08:19:48;87164.20;;;21.10
76394;BMP180;65216;51.090;-115.352;2023-10-08T08:22:20;87163.00;;;21.00
76394;BMP180;65216;51.090;-115.352;2023-10-08T08:24:57;87165.80;;;21.00
76394;BMP180;65216;51.090;-115.352;2023-10-08T08:27:45;87168.60;;;21.00
76394;BMP180;65216;51.090;-115.352;2023-10-08T08:30:15;87167.00;;;21.00
76394;BMP180;65216;51.090;-115.352;2023-10-08T08:32:46;87170.40;;;21.00
76394;BMP180;65216;51.090;-115.352;2023-10-08T08:35:16;87168.20;;;21.00
76394;BMP180;65216;51.090;-115.352;2023-10-08T08:37:44;87167.80;;;21.00
76394;BMP180;65216;51.090;-115.352;2023-10-08T08:40:13;87166.00;;;21.00
76394;BMP180;65216;51.090;-115.352;2023-10-08T08:42:49;87167.60;;;21.00
76394;BMP180;65216;51.090;-115.352;2023-10-08T08:45:22;87168.20;;;21.00
76394;BMP180;65216;51.090;-115.352;2023-10-08T08:47:53;87165.80;;;21.00
76394;BMP180;65216;51.090;-115.352;2023-10-08T08:50:22;87160.20;;;21.00
76394;BMP180;65216;51.090;-115.352;2023-10-08T08:52:52;87163.20;;;21.00
76394;BMP180;65216;51.090;-115.352;2023-10-08T08:55:21;87165.00;;;21.00
76394;BMP180;65216;51.090;-115.352;2023-10-08T08:57:50;87171.20;;;21.00
76394;BMP180;65216;51.090;-115.352;2023-10-08T09:00:20;87162.60;;;21.00
76394;BMP180;65216;51.090;-115.352;2023-10-08T09:02:48;87161.00;;;21.00
76394;BMP180;65216;51.090;-115.352;2023-10-08T09:05:16;87159.80;;;21.00
76394;BMP180;65216;51.090;-115.352;2023-10-08T09:07:59;87159.20;;;21.00
76394;BMP180;65216;51.090;-115.352;2023-10-08T09:10:30;87161.80;;;21.00
76394;BMP180;65216;51.090;-115.352;2023-10-08T09:13:05;87158.20;;;21.00
76394;BMP180;65216;51.090;-115.352;2023-10-08T09:15:33;87152.60;;;21.00
76394;BMP180;65216;51.090;-115.352;2023-10-08T09:18:01;87159.00;;;21.00
76394;BMP180;65216;51.090;-115.352;2023-10-08T09:20:31;87159.60;;;21.00
76394;BMP180;65216;51.090;-115.352;2023-10-08T09:23:15;87162.00;;;21.00
76394;BMP180;65216;51.090;-115.352;2023-10-08T09:25:47;87158.20;;;21.00
76394;BMP180;65216;51.090;-115.352;2023-10-08T09:28:20;87147.60;;;21.00
76394;BMP180;65216;51.090;-115.352;2023-10-08T09:30:52;87149.20;;;21.00
76394;BMP180;65216;51.090;-115.352;2023-10-08T09:33:21;87149.60;;;21.00
76394;BMP180;65216;51.090;-115.352;2023-10-08T09:35:48;87149.40;;;21.00
76394;BMP180;65216;51.090;-115.352;2023-10-08T09:38:17;87146.20;;;21.00
76394;BMP180;65216;51.090;-115.352;2023-10-08T09:40:50;87152.40;;;21.00
76394;BMP180;65216;51.090;-115.352;2023-10-08T09:43:19;87143.80;;;21.00
76394;BMP180;65216;51.090;-115.352;2023-10-08T09:48:41;87147.40;;;21.00
76394;BMP180;65216;51.090;-115.352;2023-10-08T09:51:11;87143.00;;;21.00
76394;BMP180;65216;51.090;-115.352;2023-10-08T09:54:17;87136.80;;;21.00
76394;BMP180;65216;51.090;-115.352;2023-10-08T09:56:47;87137.60;;;21.00
76394;BMP180;65216;51.090;-115.352;2023-10-08T09:59:17;87134.00;;;21.00
76394;BMP180;65216;51.090;-115.352;2023-10-08T10:01:52;87131.20;;;21.02
76394;BMP180;65216;51.090;-115.352;2023-10-08T10:04:26;87131.80;;;21.02
76394;BMP180;65216;51.090;-115.352;2023-10-08T10:07:09;87122.00;;;21.02
76394;BMP180;65216;51.090;-115.352;2023-10-08T10:09:43;87129.00;;;21.08
76394;BMP180;65216;51.090;-115.352;2023-10-08T10:12:11;87133.20;;;21.08
76394;BMP180;65216;51.090;-115.352;2023-10-08T10:14:47;87127.80;;;21.02
76394;BMP180;65216;51.090;-115.352;2023-10-08T10:20:01;87129.40;;;21.00
76394;BMP180;65216;51.090;-115.352;2023-10-08T10:22:33;87126.00;;;21.00
76394;BMP180;65216;51.090;-115.352;2023-10-08T10:25:03;87124.80;;;21.00
76394;BMP180;65216;51.090;-115.352;2023-10-08T10:30:22;87119.20;;;21.00
76394;BMP180;65216;51.090;-115.352;2023-10-08T10:32:54;87116.80;;;21.00
76394;BMP180;65216;51.090;-115.352;2023-10-08T10:35:24;87120.80;;;21.00
76394;BMP180;65216;51.090;-115.352;2023-10-08T10:37:51;87115.80;;;21.00
76394;BMP180;65216;51.090;-115.352;2023-10-08T10:40:24;87111.80;;;21.00
76394;BMP180;65216;51.090;-115.352;2023-10-08T10:43:07;87105.80;;;21.00
76394;BMP180;65216;51.090;-115.352;2023-10-08T10:45:42;87108.20;;;21.00
76394;BMP180;65216;51.090;-115.352;2023-10-08T10:48:16;87106.00;;;21.00
76394;BMP180;65216;51.090;-115.352;2023-10-08T10:50:51;87104.40;;;20.98
76394;BMP180;65216;51.090;-115.352;2023-10-08T10:53:34;87111.00;;;20.94
76394;BMP180;65216;51.090;-115.352;2023-10-08T10:56:20;87112.80;;;20.90
76394;BMP180;65216;51.090;-115.352;2023-10-08T10:59:00;87117.20;;;20.90
76394;BMP180;65216;51.090;-115.352;2023-10-08T11:01:32;87111.00;;;20.90
76394;BMP180;65216;51.090;-115.352;2023-10-08T11:04:18;87111.80;;;20.90
76394;BMP180;65216;51.090;-115.352;2023-10-08T11:06:50;87105.20;;;20.90
76394;BMP180;65216;51.090;-115.352;2023-10-08T11:09:20;87111.20;;;20.90
76394;BMP180;65216;51.090;-115.352;2023-10-08T11:12:03;87103.80;;;20.90
76394;BMP180;65216;51.090;-115.352;2023-10-08T11:14:41;87103.20;;;20.90
76394;BMP180;65216;51.090;-115.352;2023-10-08T11:17:25;87102.60;;;20.90
76394;BMP180;65216;51.090;-115.352;2023-10-08T11:19:55;87104.40;;;20.90
76394;BMP180;65216;51.090;-115.352;2023-10-08T11:22:22;87105.80;;;20.90
76394;BMP180;65216;51.090;-115.352;2023-10-08T11:25:24;87101.80;;;20.90
76394;BMP180;65216;51.090;-115.352;2023-10-08T11:27:57;87102.40;;;20.90
76394;BMP180;65216;51.090;-115.352;2023-10-08T11:30:36;87102.20;;;20.90
76394;BMP180;65216;51.090;-115.352;2023-10-08T11:33:07;87101.00;;;20.90
76394;BMP180;65216;51.090;-115.352;2023-10-08T11:35:33;87097.40;;;20.90
76394;BMP180;65216;51.090;-115.352;2023-10-08T11:38:01;87098.40;;;20.90
76394;BMP180;65216;51.090;-115.352;2023-10-08T11:40:29;87097.60;;;20.90
76394;BMP180;65216;51.090;-115.352;2023-10-08T11:43:15;87094.80;;;20.90
76394;BMP180;65216;51.090;-115.352;2023-10-08T11:45:45;87089.60;;;20.90
76394;BMP180;65216;51.090;-115.352;2023-10-08T11:48:15;87090.40;;;20.90
76394;BMP180;65216;51.090;-115.352;2023-10-08T11:50:48;87090.80;;;20.90
76394;BMP180;65216;51.090;-115.352;2023-10-08T11:53:19;87093.80;;;20.90
76394;BMP180;65216;51.090;-115.352;2023-10-08T11:55:49;87092.80;;;20.90
76394;BMP180;65216;51.090;-115.352;2023-10-08T11:58:21;87089.40;;;20.90
76394;BMP180;65216;51.090;-115.352;2023-10-08T12:00:59;87099.40;;;20.90
76394;BMP180;65216;51.090;-115.352;2023-10-08T12:03:30;87093.20;;;20.92
76394;BMP180;65216;51.090;-115.352;2023-10-08T12:06:01;87093.60;;;20.90
76394;BMP180;65216;51.090;-115.352;2023-10-08T12:08:31;87090.20;;;20.90
76394;BMP180;65216;51.090;-115.352;2023-10-08T12:11:05;87087.60;;;20.90
76394;BMP180;65216;51.090;-115.352;2023-10-08T12:13:42;87086.40;;;20.90
76394;BMP180;65216;51.090;-115.352;2023-10-08T12:16:16;87084.00;;;20.90
76394;BMP180;65216;51.090;-115.352;2023-10-08T12:18:49;87079.80;;;20.90
76394;BMP180;65216;51.090;-115.352;2023-10-08T12:21:20;87080.20;;;20.90
76394;BMP180;65216;51.090;-115.352;2023-10-08T12:23:48;87085.60;;;20.90
76394;BMP180;65216;51.090;-115.352;2023-10-08T12:26:18;87078.00;;;20.90
76394;BMP180;65216;51.090;-115.352;2023-10-08T12:28:48;87078.00;;;20.90
76394;BMP180;65216;51.090;-115.352;2023-10-08T12:31:20;87078.80;;;20.90
76394;BMP180;65216;51.090;-115.352;2023-10-08T12:33:56;87081.60;;;20.90
76394;BMP180;65216;51.090;-115.352;2023-10-08T12:36:24;87073.80;;;20.90
76394;BMP180;65216;51.090;-115.352;2023-10-08T12:38:53;87079.00;;;20.90
76394;BMP180;65216;51.090;-115.352;2023-10-08T12:41:25;87080.20;;;20.90
76394;BMP180;65216;51.090;-115.352;2023-10-08T12:43:55;87077.40;;;20.90
76394;BMP180;65216;51.090;-115.352;2023-10-08T12:46:24;87077.80;;;20.90
76394;BMP180;65216;51.090;-115.352;2023-10-08T12:48:53;87079.80;;;20.90
76394;BMP180;65216;51.090;-115.352;2023-10-08T12:51:22;87075.80;;;20.90
76394;BMP180;65216;51.090;-115.352;2023-10-08T12:53:54;87082.40;;;20.90
76394;BMP180;65216;51.090;-115.352;2023-10-08T12:56:34;87082.80;;;20.90
76394;BMP180;65216;51.090;-115.352;2023-10-08T12:59:03;87076.20;;;20.90
76394;BMP180;65216;51.090;-115.352;2023-10-08T13:01:36;87073.40;;;20.90
76394;BMP180;65216;51.090;-115.352;2023-10-08T13:04:07;87077.80;;;20.90
76394;BMP180;65216;51.090;-115.352;2023-10-08T13:06:38;87078.40;;;20.90
76394;BMP180;65216;51.090;-115.352;2023-10-08T13:09:05;87076.00;;;20.90
76394;BMP180;65216;51.090;-115.352;2023-10-08T13:11:39;87073.40;;;20.90
76394;BMP180;65216;51.090;-115.352;2023-10-08T13:14:06;87074.80;;;20.90
76394;BMP180;65216;51.090;-115.352;2023-10-08T13:16:33;87072.60;;;20.90
76394;BMP180;65216;51.090;-115.352;2023-10-08T13:19:04;87074.00;;;20.90
76394;BMP180;65216;51.090;-115.352;2023-10-08T13:21:36;87063.60;;;20.90
76394;BMP180;65216;51.090;-115.352;2023-10-08T13:24:07;87070.60;;;20.92
76394;BMP180;65216;51.090;-115.352;2023-10-08T13:26:36;87070.00;;;20.98
76394;BMP180;65216;51.090;-115.352;2023-10-08T13:29:05;87068.60;;;20.96
76394;BMP180;65216;51.090;-115.352;2023-10-08T13:31:35;87065.80;;;21.00
76394;BMP180;65216;51.090;-115.352;2023-10-08T13:34:05;87065.40;;;21.00
76394;BMP180;65216;51.090;-115.352;2023-10-08T13:36:38;87069.00;;;21.00
76394;BMP180;65216;51.090;-115.352;2023-10-08T13:39:11;87069.60;;;21.00
76394;BMP180;65216;51.090;-115.352;2023-10-08T13:41:46;87067.20;;;21.00
76394;BMP180;65216;51.090;-115.352;2023-10-08T13:44:19;87066.80;;;21.00
76394;BMP180;65216;51.090;-115.352;2023-10-08T13:46:56;87064.60;;;21.00
76394;BMP180;65216;51.090;-115.352;2023-10-08T13:49:25;87060.40;;;21.00
76394;BMP180;65216;51.090;-115.352;2023-10-08T13:51:55;87058.40;;;21.00
76394;BMP180;65216;51.090;-115.352;2023-10-08T13:54:22;87057.60;;;21.00
76394;BMP180;65216;51.090;-115.352;2023-10-08T13:56:57;87058.80;;;21.10
76394;BMP180;65216;51.090;-115.352;2023-10-08T13:59:27;87064.80;;;21.10
76394;BMP180;65216;51.090;-115.352;2023-10-08T14:01:57;87076.60;;;21.16
76394;BMP180;65216;51.090;-115.352;2023-10-08T14:04:26;87073.80;;;21.20
76394;BMP180;65216;51.090;-115.352;2023-10-08T14:06:56;87070.60;;;21.20
76394;BMP180;65216;51.090;-115.352;2023-10-08T14:09:25;87067.80;;;21.30
76394;BMP180;65216;51.090;-115.352;2023-10-08T14:11:58;87071.40;;;21.30
76394;BMP180;65216;51.090;-115.352;2023-10-08T14:14:28;87071.40;;;21.30
76394;BMP180;65216;51.090;-115.352;2023-10-08T14:17:01;87067.40;;;21.40
76394;BMP180;65216;51.090;-115.352;2023-10-08T14:19:41;87074.40;;;21.40
76394;BMP180;65216;51.090;-115.352;2023-10-08T14:22:32;87069.20;;;21.44
76394;BMP180;65216;51.090;-115.352;2023-10-08T14:25:02;87084.00;;;21.50